sensor_id;sensor_type;location;lat;lon;timestamp;P1;durP1;ratioP1;P2;durP2;ratioP2
57231;SDS011;43488;46.934;8.276;2023-04-19T00:01:21;683.60;;;306.98;;
57231;SDS011;43488;46.934;8.276;2023-04-19T00:03:50;673.38;;;298.20;;
57231;SDS011;43488;46.934;8.276;2023-04-19T00:06:17;679.90;;;304.17;;
57231;SDS011;43488;46.934;8.276;2023-04-19T00:08:46;673.90;;;301.00;;
57231;SDS011;43488;46.934;8.276;2023-04-19T00:11:13;676.05;;;294.80;;
57231;SDS011;43488;46.934;8.276;2023-04-19T00:13:40;673.88;;;298.00;;
57231;SDS011;43488;46.934;8.276;2023-04-19T00:16:09;685.85;;;312.23;;
57231;SDS011;43488;46.934;8.276;2023-04-19T00:18:36;684.78;;;313.20;;
57231;SDS011;43488;46.934;8.276;2023-04-19T00:21:04;676.28;;;293.25;;
57231;SDS011;43488;46.934;8.276;2023-04-19T00:23:37;677.92;;;298.98;;
57231;SDS011;43488;46.934;8.276;2023-04-19T00:26:17;666.17;;;281.80;;
57231;SDS011;43488;46.934;8.276;2023-04-19T00:28:44;674.15;;;297.80;;
57231;SDS011;43488;46.934;8.276;2023-04-19T00:31:12;673.70;;;289.45;;
57231;SDS011;43488;46.934;8.276;2023-04-19T00:33:39;665.90;;;285.20;;
57231;SDS011;43488;46.934;8.276;2023-04-19T00:36:07;667.72;;;284.60;;
57231;SDS011;43488;46.934;8.276;2023-04-19T00:38:36;681.40;;;305.23;;
57231;SDS011;43488;46.934;8.276;2023-04-19T00:41:09;673.63;;;291.90;;
57231;SDS011;43488;46.934;8.276;2023-04-19T00:43:37;670.80;;;289.58;;
57231;SDS011;43488;46.934;8.276;2023-04-19T00:46:05;667.92;;;282.88;;
57231;SDS011;43488;46.934;8.276;2023-04-19T00:48:33;679.28;;;304.95;;
57231;SDS011;43488;46.934;8.276;2023-04-19T00:51:04;688.50;;;311.33;;
57231;SDS011;43488;46.934;8.276;2023-04-19T00:53:33;666.15;;;291.38;;
57231;SDS011;43488;46.934;8.276;2023-04-19T00:56:03;677.63;;;311.00;;
57231;SDS011;43488;46.934;8.276;2023-04-19T00:58:38;670.13;;;314.23;;
57231;SDS011;43488;46.934;8.276;2023-04-19T01:01:06;611.10;;;261.42;;
57231;SDS011;43488;46.934;8.276;2023-04-19T01:03:34;679.47;;;305.20;;
57231;SDS011;43488;46.934;8.276;2023-04-19T01:06:02;684.00;;;302.00;;
57231;SDS011;43488;46.934;8.276;2023-04-19T01:08:41;678.10;;;299.92;;
57231;SDS011;43488;46.934;8.276;2023-04-19T01:11:11;679.05;;;296.63;;
57231;SDS011;43488;46.934;8.276;2023-04-19T01:13:39;682.05;;;303.30;;
57231;SDS011;43488;46.934;8.276;2023-04-19T01:16:10;680.95;;;297.13;;
57231;SDS011;43488;46.934;8.276;2023-04-19T01:18:38;685.72;;;309.73;;
57231;SDS011;43488;46.934;8.276;2023-04-19T01:21:06;687.42;;;302.50;;
57231;SDS011;43488;46.934;8.276;2023-04-19T01:23:35;690.10;;;311.63;;
57231;SDS011;43488;46.934;8.276;2023-04-19T01:26:04;682.90;;;297.08;;
57231;SDS011;43488;46.934;8.276;2023-04-19T01:28:51;687.17;;;307.75;;
57231;SDS011;43488;46.934;8.276;2023-04-19T01:33:51;693.90;;;314.52;;
57231;SDS011;43488;46.934;8.276;2023-04-19T01:36:19;687.22;;;308.05;;
57231;SDS011;43488;46.934;8.276;2023-04-19T01:38:48;679.05;;;297.20;;
57231;SDS011;43488;46.934;8.276;2023-04-19T01:41:27;678.20;;;291.67;;
57231;SDS011;43488;46.934;8.276;2023-04-19T01:43:55;677.55;;;298.77;;
57231;SDS011;43488;46.934;8.276;2023-04-19T01:46:22;688.17;;;312.05;;
57231;SDS011;43488;46.934;8.276;2023-04-19T01:48:55;676.55;;;300.23;;
57231;SDS011;43488;46.934;8.276;2023-04-19T01:51:36;683.00;;;308.50;;
57231;SDS011;43488;46.934;8.276;2023-04-19T01:54:16;666.08;;;293.55;;
57231;SDS011;43488;46.934;8.276;2023-04-19T01:56:44;674.28;;;308.88;;
57231;SDS011;43488;46.934;8.276;2023-04-19T01:59:29;654.00;;;289.83;;
57231;SDS011;43488;46.934;8.276;2023-04-19T02:01:58;644.95;;;283.63;;
57231;SDS011;43488;46.934;8.276;2023-04-19T02:04:28;657.08;;;294.10;;
57231;SDS011;43488;46.934;8.276;2023-04-19T02:06:56;684.27;;;313.07;;
57231;SDS011;43488;46.934;8.276;2023-04-19T02:09:23;668.65;;;289.77;;
57231;SDS011;43488;46.934;8.276;2023-04-19T02:11:51;678.83;;;299.27;;
57231;SDS011;43488;46.934;8.276;2023-04-19T02:14:19;674.67;;;299.88;;
57231;SDS011;43488;46.934;8.276;2023-04-19T02:16:53;683.10;;;310.80;;
57231;SDS011;43488;46.934;8.276;2023-04-19T02:19:20;663.75;;;293.60;;
57231;SDS011;43488;46.934;8.276;2023-04-19T02:21:48;659.88;;;290.83;;
57231;SDS011;43488;46.934;8.276;2023-04-19T02:24:24;656.90;;;297.60;;
57231;SDS011;43488;46.934;8.276;2023-04-19T02:26:52;667.17;;;299.80;;
57231;SDS011;43488;46.934;8.276;2023-04-19T02:29:19;663.03;;;294.50;;
57231;SDS011;43488;46.934;8.276;2023-04-19T02:34:38;658.95;;;294.63;;
57231;SDS011;43488;46.934;8.276;2023-04-19T02:37:05;594.00;;;268.67;;
57231;SDS011;43488;46.934;8.276;2023-04-19T02:42:08;581.90;;;249.77;;
57231;SDS011;43488;46.934;8.276;2023-04-19T02:44:36;582.20;;;254.55;;
57231;SDS011;43488;46.934;8.276;2023-04-19T02:47:17;572.20;;;250.50;;
57231;SDS011;43488;46.934;8.276;2023-04-19T02:52:42;585.58;;;256.73;;
57231;SDS011;43488;46.934;8.276;2023-04-19T02:55:09;584.60;;;256.38;;
57231;SDS011;43488;46.934;8.276;2023-04-19T02:57:37;589.90;;;262.23;;
57231;SDS011;43488;46.934;8.276;2023-04-19T03:00:04;589.28;;;264.23;;
57231;SDS011;43488;46.934;8.276;2023-04-19T03:02:35;567.92;;;225.18;;
57231;SDS011;43488;46.934;8.276;2023-04-19T03:05:04;596.05;;;265.40;;
57231;SDS011;43488;46.934;8.276;2023-04-19T03:07:44;586.42;;;246.63;;
57231;SDS011;43488;46.934;8.276;2023-04-19T03:10:11;596.60;;;270.70;;
57231;SDS011;43488;46.934;8.276;2023-04-19T03:12:38;594.53;;;258.60;;
57231;SDS011;43488;46.934;8.276;2023-04-19T03:15:11;567.85;;;218.55;;
57231;SDS011;43488;46.934;8.276;2023-04-19T03:17:39;609.08;;;273.77;;
57231;SDS011;43488;46.934;8.276;2023-04-19T03:20:07;597.80;;;266.45;;
57231;SDS011;43488;46.934;8.276;2023-04-19T03:22:37;579.47;;;243.68;;
57231;SDS011;43488;46.934;8.276;2023-04-19T03:25:15;575.65;;;253.98;;
57231;SDS011;43488;46.934;8.276;2023-04-19T03:27:51;561.97;;;242.23;;
57231;SDS011;43488;46.934;8.276;2023-04-19T03:33:05;624.72;;;267.13;;
57231;SDS011;43488;46.934;8.276;2023-04-19T03:35:32;614.45;;;260.55;;
57231;SDS011;43488;46.934;8.276;2023-04-19T03:38:01;598.53;;;262.40;;
57231;SDS011;43488;46.934;8.276;2023-04-19T03:40:44;565.30;;;229.50;;
57231;SDS011;43488;46.934;8.276;2023-04-19T03:43:19;613.05;;;262.08;;
57231;SDS011;43488;46.934;8.276;2023-04-19T03:45:53;618.47;;;267.15;;
57231;SDS011;43488;46.934;8.276;2023-04-19T03:48:21;614.42;;;264.23;;
57231;SDS011;43488;46.934;8.276;2023-04-19T03:50:48;627.58;;;283.02;;
57231;SDS011;43488;46.934;8.276;2023-04-19T03:53:16;613.05;;;258.42;;
57231;SDS011;43488;46.934;8.276;2023-04-19T03:55:55;619.75;;;269.40;;
57231;SDS011;43488;46.934;8.276;2023-04-19T03:58:22;617.72;;;266.05;;
57231;SDS011;43488;46.934;8.276;2023-04-19T04:00:49;622.65;;;274.48;;
57231;SDS011;43488;46.934;8.276;2023-04-19T04:03:28;607.80;;;253.88;;
57231;SDS011;43488;46.934;8.276;2023-04-19T04:06:00;616.33;;;268.15;;
57231;SDS011;43488;46.934;8.276;2023-04-19T04:08:47;622.17;;;271.33;;
57231;SDS011;43488;46.934;8.276;2023-04-19T04:11:24;621.55;;;271.38;;
57231;SDS011;43488;46.934;8.276;2023-04-19T04:13:52;615.75;;;260.50;;
57231;SDS011;43488;46.934;8.276;2023-04-19T04:16:27;616.90;;;263.60;;
57231;SDS011;43488;46.934;8.276;2023-04-19T04:18:54;627.03;;;272.35;;
57231;SDS011;43488;46.934;8.276;2023-04-19T04:21:21;626.50;;;274.42;;
57231;SDS011;43488;46.934;8.276;2023-04-19T04:23:50;622.60;;;266.48;;
57231;SDS011;43488;46.934;8.276;2023-04-19T04:26:19;628.13;;;275.73;;
57231;SDS011;43488;46.934;8.276;2023-04-19T04:28:47;630.30;;;276.67;;
57231;SDS011;43488;46.934;8.276;2023-04-19T04:31:18;631.47;;;281.88;;
57231;SDS011;43488;46.934;8.276;2023-04-19T04:33:47;619.63;;;261.27;;
57231;SDS011;43488;46.934;8.276;2023-04-19T04:36:14;625.50;;;270.02;;
57231;SDS011;43488;46.934;8.276;2023-04-19T04:38:41;636.60;;;287.27;;
57231;SDS011;43488;46.934;8.276;2023-04-19T04:43:41;631.80;;;276.42;;
57231;SDS011;43488;46.934;8.276;2023-04-19T04:46:11;624.13;;;269.10;;
57231;SDS011;43488;46.934;8.276;2023-04-19T04:48:38;618.58;;;261.88;;
57231;SDS011;43488;46.934;8.276;2023-04-19T04:51:06;632.78;;;284.10;;
57231;SDS011;43488;46.934;8.276;2023-04-19T04:53:33;621.97;;;263.10;;
57231;SDS011;43488;46.934;8.276;2023-04-19T04:56:03;628.03;;;273.67;;
57231;SDS011;43488;46.934;8.276;2023-04-19T04:58:31;638.30;;;288.08;;
57231;SDS011;43488;46.934;8.276;2023-04-19T05:01:21;641.60;;;291.60;;
57231;SDS011;43488;46.934;8.276;2023-04-19T05:03:49;637.15;;;279.70;;
57231;SDS011;43488;46.934;8.276;2023-04-19T05:06:17;639.03;;;283.58;;
57231;SDS011;43488;46.934;8.276;2023-04-19T05:08:45;630.00;;;269.55;;
57231;SDS011;43488;46.934;8.276;2023-04-19T05:11:12;642.28;;;289.98;;
57231;SDS011;43488;46.934;8.276;2023-04-19T05:13:43;643.38;;;284.20;;
57231;SDS011;43488;46.934;8.276;2023-04-19T05:16:16;631.65;;;269.25;;
57231;SDS011;43488;46.934;8.276;2023-04-19T05:18:47;642.05;;;282.45;;
57231;SDS011;43488;46.934;8.276;2023-04-19T05:21:15;638.03;;;282.10;;
57231;SDS011;43488;46.934;8.276;2023-04-19T05:23:42;632.60;;;270.45;;
57231;SDS011;43488;46.934;8.276;2023-04-19T05:26:15;632.83;;;274.25;;
57231;SDS011;43488;46.934;8.276;2023-04-19T05:28:43;636.72;;;275.15;;
57231;SDS011;43488;46.934;8.276;2023-04-19T05:31:10;636.50;;;281.65;;
57231;SDS011;43488;46.934;8.276;2023-04-19T05:33:38;637.33;;;269.27;;
57231;SDS011;43488;46.934;8.276;2023-04-19T05:38:49;643.78;;;274.13;;
57231;SDS011;43488;46.934;8.276;2023-04-19T05:43:50;645.90;;;283.33;;
57231;SDS011;43488;46.934;8.276;2023-04-19T05:49:02;640.90;;;276.27;;
57231;SDS011;43488;46.934;8.276;2023-04-19T05:51:41;644.25;;;288.92;;
57231;SDS011;43488;46.934;8.276;2023-04-19T05:54:09;644.10;;;278.38;;
57231;SDS011;43488;46.934;8.276;2023-04-19T05:56:38;644.90;;;283.42;;
57231;SDS011;43488;46.934;8.276;2023-04-19T05:59:05;648.45;;;288.80;;
57231;SDS011;43488;46.934;8.276;2023-04-19T06:01:34;650.15;;;295.33;;
57231;SDS011;43488;46.934;8.276;2023-04-19T06:04:01;642.63;;;279.27;;
57231;SDS011;43488;46.934;8.276;2023-04-19T06:06:30;637.83;;;275.65;;
57231;SDS011;43488;46.934;8.276;2023-04-19T06:08:58;645.83;;;284.88;;
57231;SDS011;43488;46.934;8.276;2023-04-19T06:11:41;635.72;;;276.27;;
57231;SDS011;43488;46.934;8.276;2023-04-19T06:14:09;647.20;;;284.75;;
57231;SDS011;43488;46.934;8.276;2023-04-19T06:16:45;640.53;;;278.15;;
57231;SDS011;43488;46.934;8.276;2023-04-19T06:19:12;647.75;;;289.85;;
57231;SDS011;43488;46.934;8.276;2023-04-19T06:21:40;633.45;;;272.65;;
57231;SDS011;43488;46.934;8.276;2023-04-19T06:24:14;641.47;;;277.75;;
57231;SDS011;43488;46.934;8.276;2023-04-19T06:26:41;640.53;;;280.40;;
57231;SDS011;43488;46.934;8.276;2023-04-19T06:32:07;636.45;;;275.25;;
57231;SDS011;43488;46.934;8.276;2023-04-19T06:34:36;646.83;;;285.48;;
57231;SDS011;43488;46.934;8.276;2023-04-19T06:37:03;645.10;;;285.92;;
57231;SDS011;43488;46.934;8.276;2023-04-19T06:39:30;650.22;;;287.38;;
57231;SDS011;43488;46.934;8.276;2023-04-19T06:41:58;651.53;;;296.98;;
57231;SDS011;43488;46.934;8.276;2023-04-19T06:44:35;638.47;;;274.98;;
57231;SDS011;43488;46.934;8.276;2023-04-19T06:47:21;638.10;;;271.25;;
57231;SDS011;43488;46.934;8.276;2023-04-19T06:49:58;647.78;;;287.60;;
57231;SDS011;43488;46.934;8.276;2023-04-19T06:52:27;642.63;;;285.13;;
57231;SDS011;43488;46.934;8.276;2023-04-19T06:54:58;640.00;;;275.02;;
57231;SDS011;43488;46.934;8.276;2023-04-19T06:58:34;642.30;;;278.90;;
57231;SDS011;43488;46.934;8.276;2023-04-19T07:01:11;647.15;;;285.40;;
57231;SDS011;43488;46.934;8.276;2023-04-19T07:03:39;638.67;;;278.85;;
57231;SDS011;43488;46.934;8.276;2023-04-19T07:06:08;649.72;;;289.77;;
57231;SDS011;43488;46.934;8.276;2023-04-19T07:08:39;647.78;;;289.33;;
57231;SDS011;43488;46.934;8.276;2023-04-19T07:11:06;647.28;;;287.52;;
57231;SDS011;43488;46.934;8.276;2023-04-19T07:13:34;638.05;;;276.98;;
57231;SDS011;43488;46.934;8.276;2023-04-19T07:16:07;643.28;;;276.85;;
57231;SDS011;43488;46.934;8.276;2023-04-19T07:18:35;648.63;;;290.10;;
57231;SDS011;43488;46.934;8.276;2023-04-19T07:21:13;646.20;;;288.05;;
57231;SDS011;43488;46.934;8.276;2023-04-19T07:26:22;650.03;;;289.50;;
57231;SDS011;43488;46.934;8.276;2023-04-19T07:28:49;636.47;;;273.58;;
57231;SDS011;43488;46.934;8.276;2023-04-19T07:31:43;638.40;;;274.77;;
57231;SDS011;43488;46.934;8.276;2023-04-19T07:34:22;640.47;;;279.48;;
57231;SDS011;43488;46.934;8.276;2023-04-19T07:36:49;647.35;;;283.23;;
57231;SDS011;43488;46.934;8.276;2023-04-19T07:39:17;639.70;;;275.70;;
57231;SDS011;43488;46.934;8.276;2023-04-19T07:41:48;634.47;;;271.75;;
57231;SDS011;43488;46.934;8.276;2023-04-19T07:44:16;639.70;;;281.50;;
57231;SDS011;43488;46.934;8.276;2023-04-19T07:46:58;640.28;;;266.75;;
57231;SDS011;43488;46.934;8.276;2023-04-19T07:49:37;645.80;;;281.33;;
57231;SDS011;43488;46.934;8.276;2023-04-19T07:52:14;644.38;;;275.27;;
57231;SDS011;43488;46.934;8.276;2023-04-19T07:54:52;649.15;;;289.23;;
57231;SDS011;43488;46.934;8.276;2023-04-19T07:57:35;637.92;;;270.58;;
57231;SDS011;43488;46.934;8.276;2023-04-19T08:00:02;640.58;;;269.90;;
57231;SDS011;43488;46.934;8.276;2023-04-19T08:02:31;640.63;;;277.77;;
57231;SDS011;43488;46.934;8.276;2023-04-19T08:04:59;658.33;;;298.92;;
57231;SDS011;43488;46.934;8.276;2023-04-19T08:07:27;647.78;;;280.58;;
57231;SDS011;43488;46.934;8.276;2023-04-19T08:10:00;643.75;;;269.30;;
57231;SDS011;43488;46.934;8.276;2023-04-19T08:12:34;657.40;;;292.38;;
57231;SDS011;43488;46.934;8.276;2023-04-19T08:15:03;661.03;;;294.65;;
57231;SDS011;43488;46.934;8.276;2023-04-19T08:17:33;663.80;;;295.80;;
57231;SDS011;43488;46.934;8.276;2023-04-19T08:20:02;653.63;;;283.80;;
57231;SDS011;43488;46.934;8.276;2023-04-19T08:22:32;660.40;;;287.85;;
57231;SDS011;43488;46.934;8.276;2023-04-19T08:25:00;649.35;;;276.42;;
57231;SDS011;43488;46.934;8.276;2023-04-19T08:27:27;658.50;;;285.85;;
57231;SDS011;43488;46.934;8.276;2023-04-19T08:29:54;652.97;;;284.55;;
57231;SDS011;43488;46.934;8.276;2023-04-19T08:32:23;665.95;;;301.13;;
57231;SDS011;43488;46.934;8.276;2023-04-19T08:34:53;647.22;;;278.08;;
57231;SDS011;43488;46.934;8.276;2023-04-19T08:37:20;662.70;;;292.80;;
57231;SDS011;43488;46.934;8.276;2023-04-19T08:39:48;645.50;;;272.38;;
57231;SDS011;43488;46.934;8.276;2023-04-19T08:42:17;659.05;;;291.45;;
57231;SDS011;43488;46.934;8.276;2023-04-19T08:44:45;648.90;;;278.77;;
57231;SDS011;43488;46.934;8.276;2023-04-19T08:47:13;659.08;;;285.63;;
57231;SDS011;43488;46.934;8.276;2023-04-19T08:49:42;668.03;;;296.75;;
57231;SDS011;43488;46.934;8.276;2023-04-19T08:52:48;676.25;;;300.88;;
57231;SDS011;43488;46.934;8.276;2023-04-19T08:55:16;696.05;;;318.23;;
57231;SDS011;43488;46.934;8.276;2023-04-19T08:57:44;689.53;;;296.60;;
57231;SDS011;43488;46.934;8.276;2023-04-19T09:00:11;689.90;;;304.10;;
57231;SDS011;43488;46.934;8.276;2023-04-19T09:02:49;688.15;;;304.77;;
57231;SDS011;43488;46.934;8.276;2023-04-19T09:05:19;687.35;;;307.15;;
57231;SDS011;43488;46.934;8.276;2023-04-19T09:07:47;689.03;;;305.88;;
57231;SDS011;43488;46.934;8.276;2023-04-19T09:10:15;679.97;;;299.05;;
57231;SDS011;43488;46.934;8.276;2023-04-19T09:15:53;674.28;;;293.08;;
57231;SDS011;43488;46.934;8.276;2023-04-19T09:18:30;686.45;;;304.73;;
57231;SDS011;43488;46.934;8.276;2023-04-19T09:20:59;675.85;;;294.35;;
57231;SDS011;43488;46.934;8.276;2023-04-19T09:23:27;685.45;;;303.27;;
57231;SDS011;43488;46.934;8.276;2023-04-19T09:25:58;678.42;;;301.63;;
57231;SDS011;43488;46.934;8.276;2023-04-19T09:28:40;682.65;;;293.30;;
57231;SDS011;43488;46.934;8.276;2023-04-19T09:31:33;680.97;;;298.13;;
57231;SDS011;43488;46.934;8.276;2023-04-19T09:34:15;676.67;;;287.70;;
57231;SDS011;43488;46.934;8.276;2023-04-19T09:36:55;679.95;;;297.98;;
57231;SDS011;43488;46.934;8.276;2023-04-19T09:39:32;687.03;;;300.13;;
57231;SDS011;43488;46.934;8.276;2023-04-19T09:42:01;684.05;;;296.17;;
57231;SDS011;43488;46.934;8.276;2023-04-19T09:44:28;694.75;;;311.77;;
57231;SDS011;43488;46.934;8.276;2023-04-19T09:47:25;688.78;;;305.08;;
57231;SDS011;43488;46.934;8.276;2023-04-19T09:50:05;694.78;;;306.95;;
57231;SDS011;43488;46.934;8.276;2023-04-19T09:52:37;688.70;;;303.63;;
57231;SDS011;43488;46.934;8.276;2023-04-19T09:55:04;687.97;;;299.30;;
57231;SDS011;43488;46.934;8.276;2023-04-19T09:57:35;695.92;;;314.90;;
57231;SDS011;43488;46.934;8.276;2023-04-19T10:05:27;698.83;;;312.00;;
57231;SDS011;43488;46.934;8.276;2023-04-19T10:08:01;696.03;;;310.85;;
57231;SDS011;43488;46.934;8.276;2023-04-19T10:10:44;688.53;;;296.98;;
57231;SDS011;43488;46.934;8.276;2023-04-19T10:13:15;693.83;;;305.20;;
57231;SDS011;43488;46.934;8.276;2023-04-19T10:15:54;694.72;;;309.58;;
57231;SDS011;43488;46.934;8.276;2023-04-19T10:18:22;686.35;;;301.55;;
57231;SDS011;43488;46.934;8.276;2023-04-19T10:20:58;685.88;;;293.48;;
57231;SDS011;43488;46.934;8.276;2023-04-19T10:23:32;695.42;;;310.05;;
57231;SDS011;43488;46.934;8.276;2023-04-19T10:26:02;693.72;;;306.50;;
57231;SDS011;43488;46.934;8.276;2023-04-19T10:28:30;693.60;;;311.33;;
57231;SDS011;43488;46.934;8.276;2023-04-19T10:31:03;692.40;;;304.10;;
57231;SDS011;43488;46.934;8.276;2023-04-19T10:33:35;695.40;;;312.77;;
57231;SDS011;43488;46.934;8.276;2023-04-19T10:36:09;694.78;;;307.48;;
57231;SDS011;43488;46.934;8.276;2023-04-19T10:38:50;691.78;;;307.63;;
57231;SDS011;43488;46.934;8.276;2023-04-19T10:41:21;692.03;;;303.17;;
57231;SDS011;43488;46.934;8.276;2023-04-19T10:45:34;692.75;;;307.00;;
57231;SDS011;43488;46.934;8.276;2023-04-19T10:48:30;700.00;;;312.90;;
57231;SDS011;43488;46.934;8.276;2023-04-19T10:51:10;689.88;;;302.13;;
57231;SDS011;43488;46.934;8.276;2023-04-19T10:57:07;688.50;;;294.73;;
57231;SDS011;43488;46.934;8.276;2023-04-19T10:59:42;697.50;;;306.83;;
57231;SDS011;43488;46.934;8.276;2023-04-19T11:07:26;684.67;;;300.38;;
57231;SDS011;43488;46.934;8.276;2023-04-19T11:09:54;686.88;;;302.65;;
57231;SDS011;43488;46.934;8.276;2023-04-19T11:12:22;672.67;;;291.55;;
57231;SDS011;43488;46.934;8.276;2023-04-19T11:14:50;678.80;;;299.08;;
57231;SDS011;43488;46.934;8.276;2023-04-19T11:17:26;670.10;;;292.40;;
57231;SDS011;43488;46.934;8.276;2023-04-19T11:23:01;615.08;;;277.83;;
57231;SDS011;43488;46.934;8.276;2023-04-19T11:25:34;630.70;;;268.58;;
57231;SDS011;43488;46.934;8.276;2023-04-19T11:28:02;623.05;;;260.67;;
57231;SDS011;43488;46.934;8.276;2023-04-19T11:30:32;599.78;;;260.58;;
57231;SDS011;43488;46.934;8.276;2023-04-19T11:33:00;617.43;;;275.73;;
57231;SDS011;43488;46.934;8.276;2023-04-19T11:35:27;621.65;;;268.73;;
57231;SDS011;43488;46.934;8.276;2023-04-19T11:37:58;621.33;;;264.98;;
57231;SDS011;43488;46.934;8.276;2023-04-19T11:40:29;637.50;;;277.50;;
57231;SDS011;43488;46.934;8.276;2023-04-19T11:42:58;638.10;;;281.30;;
57231;SDS011;43488;46.934;8.276;2023-04-19T11:45:45;648.08;;;283.48;;
57231;SDS011;43488;46.934;8.276;2023-04-19T11:48:25;645.38;;;285.33;;
57231;SDS011;43488;46.934;8.276;2023-04-19T11:50:56;638.55;;;273.33;;
57231;SDS011;43488;46.934;8.276;2023-04-19T11:53:33;656.28;;;296.27;;
57231;SDS011;43488;46.934;8.276;2023-04-19T11:56:04;650.33;;;281.80;;
57231;SDS011;43488;46.934;8.276;2023-04-19T11:58:44;642.78;;;276.63;;
57231;SDS011;43488;46.934;8.276;2023-04-19T12:01:18;649.33;;;282.58;;
57231;SDS011;43488;46.934;8.276;2023-04-19T12:03:56;650.30;;;288.50;;
57231;SDS011;43488;46.934;8.276;2023-04-19T12:06:24;648.33;;;281.27;;
57231;SDS011;43488;46.934;8.276;2023-04-19T12:08:57;642.42;;;273.10;;
57231;SDS011;43488;46.934;8.276;2023-04-19T12:11:25;648.20;;;280.75;;
57231;SDS011;43488;46.934;8.276;2023-04-19T12:14:13;660.83;;;301.35;;
57231;SDS011;43488;46.934;8.276;2023-04-19T12:16:42;660.60;;;292.33;;
57231;SDS011;43488;46.934;8.276;2023-04-19T12:19:15;659.25;;;290.23;;
57231;SDS011;43488;46.934;8.276;2023-04-19T12:21:46;656.47;;;288.65;;
57231;SDS011;43488;46.934;8.276;2023-04-19T12:24:14;649.30;;;281.02;;
57231;SDS011;43488;46.934;8.276;2023-04-19T12:26:52;655.03;;;286.10;;
57231;SDS011;43488;46.934;8.276;2023-04-19T12:29:25;651.80;;;285.15;;
57231;SDS011;43488;46.934;8.276;2023-04-19T12:31:53;654.90;;;287.95;;
57231;SDS011;43488;46.934;8.276;2023-04-19T12:34:23;661.10;;;298.05;;
57231;SDS011;43488;46.934;8.276;2023-04-19T12:36:51;658.28;;;290.42;;
57231;SDS011;43488;46.934;8.276;2023-04-19T12:39:18;654.90;;;284.70;;
57231;SDS011;43488;46.934;8.276;2023-04-19T12:41:53;670.20;;;301.75;;
57231;SDS011;43488;46.934;8.276;2023-04-19T12:44:22;665.80;;;296.65;;
57231;SDS011;43488;46.934;8.276;2023-04-19T12:46:49;666.58;;;290.27;;
57231;SDS011;43488;46.934;8.276;2023-04-19T12:49:17;666.70;;;295.20;;
57231;SDS011;43488;46.934;8.276;2023-04-19T12:51:45;664.38;;;288.00;;
57231;SDS011;43488;46.934;8.276;2023-04-19T12:54:13;626.05;;;281.48;;
57231;SDS011;43488;46.934;8.276;2023-04-19T12:56:41;632.97;;;279.60;;
57231;SDS011;43488;46.934;8.276;2023-04-19T12:59:21;626.10;;;276.02;;
57231;SDS011;43488;46.934;8.276;2023-04-19T13:01:52;623.33;;;275.08;;
57231;SDS011;43488;46.934;8.276;2023-04-19T13:04:19;618.35;;;257.92;;
57231;SDS011;43488;46.934;8.276;2023-04-19T13:06:46;630.53;;;269.73;;
57231;SDS011;43488;46.934;8.276;2023-04-19T13:09:19;637.88;;;285.73;;
57231;SDS011;43488;46.934;8.276;2023-04-19T13:11:47;636.38;;;277.42;;
57231;SDS011;43488;46.934;8.276;2023-04-19T13:14:15;633.92;;;276.27;;
57231;SDS011;43488;46.934;8.276;2023-04-19T13:16:42;638.63;;;279.30;;
57231;SDS011;43488;46.934;8.276;2023-04-19T13:19:15;642.65;;;287.77;;
57231;SDS011;43488;46.934;8.276;2023-04-19T13:21:55;638.55;;;279.42;;
57231;SDS011;43488;46.934;8.276;2023-04-19T13:24:22;640.38;;;285.67;;
57231;SDS011;43488;46.934;8.276;2023-04-19T13:26:53;641.55;;;279.77;;
57231;SDS011;43488;46.934;8.276;2023-04-19T13:29:27;646.23;;;287.07;;
57231;SDS011;43488;46.934;8.276;2023-04-19T13:31:57;641.15;;;279.13;;
57231;SDS011;43488;46.934;8.276;2023-04-19T13:34:45;643.15;;;282.65;;
57231;SDS011;43488;46.934;8.276;2023-04-19T13:37:15;646.65;;;283.02;;
57231;SDS011;43488;46.934;8.276;2023-04-19T13:39:48;640.88;;;278.70;;
57231;SDS011;43488;46.934;8.276;2023-04-19T13:42:17;639.85;;;277.25;;
57231;SDS011;43488;46.934;8.276;2023-04-19T13:44:44;649.97;;;290.15;;
57231;SDS011;43488;46.934;8.276;2023-04-19T13:47:14;649.90;;;284.05;;
57231;SDS011;43488;46.934;8.276;2023-04-19T13:49:47;643.67;;;284.35;;
57231;SDS011;43488;46.934;8.276;2023-04-19T13:52:17;654.55;;;292.05;;
57231;SDS011;43488;46.934;8.276;2023-04-19T13:54:45;653.85;;;299.40;;
57231;SDS011;43488;46.934;8.276;2023-04-19T13:57:12;662.17;;;293.48;;
57231;SDS011;43488;46.934;8.276;2023-04-19T13:59:45;610.10;;;268.20;;
57231;SDS011;43488;46.934;8.276;2023-04-19T14:02:13;627.17;;;271.50;;
57231;SDS011;43488;46.934;8.276;2023-04-19T14:04:40;639.75;;;289.83;;
57231;SDS011;43488;46.934;8.276;2023-04-19T14:07:07;639.78;;;281.38;;
57231;SDS011;43488;46.934;8.276;2023-04-19T14:09:35;632.60;;;270.60;;
57231;SDS011;43488;46.934;8.276;2023-04-19T14:12:05;658.25;;;296.15;;
57231;SDS011;43488;46.934;8.276;2023-04-19T14:17:34;656.40;;;283.25;;
57231;SDS011;43488;46.934;8.276;2023-04-19T14:20:03;650.43;;;287.93;;
57231;SDS011;43488;46.934;8.276;2023-04-19T14:22:32;646.92;;;281.55;;
57231;SDS011;43488;46.934;8.276;2023-04-19T14:25:00;656.20;;;296.30;;
57231;SDS011;43488;46.934;8.276;2023-04-19T14:27:30;651.70;;;283.55;;
57231;SDS011;43488;46.934;8.276;2023-04-19T14:29:58;652.20;;;289.58;;
57231;SDS011;43488;46.934;8.276;2023-04-19T14:32:32;653.15;;;284.38;;
57231;SDS011;43488;46.934;8.276;2023-04-19T14:35:00;665.47;;;308.30;;
57231;SDS011;43488;46.934;8.276;2023-04-19T14:37:27;644.63;;;273.58;;
57231;SDS011;43488;46.934;8.276;2023-04-19T14:40:09;652.70;;;288.88;;
57231;SDS011;43488;46.934;8.276;2023-04-19T14:42:40;645.67;;;289.92;;
57231;SDS011;43488;46.934;8.276;2023-04-19T14:45:08;654.38;;;296.70;;
57231;SDS011;43488;46.934;8.276;2023-04-19T14:47:36;667.95;;;302.58;;
57231;SDS011;43488;46.934;8.276;2023-04-19T14:50:22;660.80;;;295.23;;
57231;SDS011;43488;46.934;8.276;2023-04-19T14:52:50;666.10;;;297.40;;
57231;SDS011;43488;46.934;8.276;2023-04-19T14:55:20;684.08;;;309.63;;
57231;SDS011;43488;46.934;8.276;2023-04-19T14:57:50;684.78;;;303.50;;
57231;SDS011;43488;46.934;8.276;2023-04-19T15:00:17;685.65;;;310.25;;
57231;SDS011;43488;46.934;8.276;2023-04-19T15:02:51;681.60;;;301.83;;
57231;SDS011;43488;46.934;8.276;2023-04-19T15:05:20;655.45;;;272.15;;
57231;SDS011;43488;46.934;8.276;2023-04-19T15:07:49;680.50;;;301.43;;
57231;SDS011;43488;46.934;8.276;2023-04-19T15:10:16;660.30;;;272.88;;
57231;SDS011;43488;46.934;8.276;2023-04-19T15:12:43;674.53;;;290.40;;
57231;SDS011;43488;46.934;8.276;2023-04-19T15:15:11;673.20;;;296.15;;